Latest Weather Observations for Cabramurra

IDN60901

Issued at 6:51 pm EDT Thursday 2 April 2015 (issued every 10 minutes, with the page automatically refreshed every 10 minutes)

About weather observations | Map of Canberra area stations | Latest observations for Canberra area | Other Formats
Station Details ID: 072161 Name: CABRAMURRA SMHEA AWS Lat: -35.94 Lon: 148.38 Height: 1482.4 m
Data from the previous 72 hours. | See also: Recent months at Cabramurra
Date/Time
EDT
Tmp

°C
App
Tmp
°C
Dew
Point
°C
Rel
Hum
%
Delta-T

°C
Wind Press
QNH
hPa
Press
MSL
hPa
Rain
since
9 am
mm
Dir
 
Spd
km/h
Gust
km/h
Spd
kts
Gust
kts
02/06:30pm 12.6 9.2 7.7 72 2.6 WNW 15 24 8 13 - - 0.0
02/05:30pm 14.1 10.3 9.1 72 2.8 NW 19 32 10 17 - - 0.0
02/05:00pm 14.6 9.4 8.8 68 3.2 WNW 26 39 14 21 - - 0.0
02/04:30pm 14.7 9.0 8.2 65 3.5 NW 28 50 15 27 - - 0.0
02/04:25pm 14.8 9.0 8.1 64 3.6 NW 28 50 15 27 - - 0.0
02/04:00pm 14.9 8.3 7.9 63 3.8 NW 32 46 17 25 - - 0.0
02/03:43pm 15.0 8.8 7.8 62 3.9 NW 30 48 16 26 - - 0.0
02/03:30pm 15.1 8.9 7.9 62 3.9 NW 30 43 16 23 - - 0.0
02/03:00pm 14.9 9.0 7.7 62 3.9 NW 28 43 15 23 - - 0.0
02/02:49pm 15.0 9.1 7.5 61 4.0 NW 28 46 15 25 - - 0.0
02/02:30pm 15.5 9.2 7.5 59 4.3 NW 30 41 16 22 - - 0.0
02/02:08pm 15.2 9.0 7.7 61 4.0 WNW 30 48 16 26 - - 0.0
02/02:00pm 15.5 8.8 7.3 58 4.4 NW 32 48 17 26 - - 0.0
02/01:43pm 17.2 11.6 8.6 57 4.8 NW 28 46 15 25 - - 0.0
02/01:30pm 15.9 9.0 7.4 57 4.6 WNW 33 48 18 26 - - 0.0
02/01:00pm 14.7 8.5 7.7 63 3.8 NW 30 43 16 23 - - 0.0
02/12:30pm 15.3 8.8 8.1 62 3.9 WNW 32 54 17 29 - - 0.0
02/12:21pm 15.0 9.2 7.8 62 3.9 WNW 28 50 15 27 - - 0.0
02/12:00pm 14.0 9.0 8.0 67 3.2 WNW 24 37 13 20 - - 0.0
02/11:52am 14.1 8.1 7.2 63 3.7 NW 28 46 15 25 - - 0.0
02/11:30am 14.4 8.9 7.5 63 3.7 NW 26 39 14 21 - - 0.0
02/11:00am 13.9 9.7 8.1 68 3.1 NW 20 30 11 16 - - 0.0
02/10:30am 13.7 10.6 8.7 72 2.7 NW 15 22 8 12 - - 0.0
02/10:00am 13.5 10.0 8.6 72 2.7 NW 17 30 9 16 - - 0.0
02/09:30am 12.6 8.6 8.9 78 2.0 NW 20 30 11 16 - - 0.0
02/09:00am 12.6 8.1 8.7 77 2.1 NW 22 30 12 16 - - 0.0
02/08:30am 12.6 8.5 8.7 77 2.1 NW 20 26 11 14 - - 0.0
02/08:00am 12.8 8.0 8.7 76 2.2 NW 24 37 13 20 - - 0.0
02/07:30am 12.9 7.3 8.6 75 2.3 NW 28 44 15 24 - - 0.0
02/07:00am 12.8 7.9 8.5 75 2.3 NW 24 32 13 17 - - 0.0
02/06:30am 13.1 7.4 8.4 73 2.5 NNW 28 44 15 24 - - 0.0
02/05:30am 13.1 7.8 8.6 74 2.4 NNW 26 43 14 23 - - 0.0
02/05:00am 12.9 7.2 8.4 74 2.4 NNW 28 44 15 24 - - 0.0
02/04:30am 13.2 7.9 8.3 72 2.6 NNW 26 37 14 20 - - 0.0
02/04:00am 13.7 7.0 8.1 69 3.0 NNW 33 44 18 24 - - 0.0
02/03:30am 13.7 7.6 8.3 70 2.9 NW 30 46 16 25 - - 0.0
02/03:00am 13.9 8.2 8.5 70 2.9 NW 28 39 15 21 - - 0.0
02/02:47am 14.0 8.3 8.4 69 3.0 NW 28 46 15 25 - - 0.0
02/02:30am 14.1 8.1 8.5 69 3.0 NW 30 43 16 23 - - 0.0
02/02:00am 14.1 8.1 8.5 69 3.0 NW 30 43 16 23 - - 0.0
02/01:30am 14.0 9.1 8.6 70 2.9 NW 24 37 13 20 - - 0.0
02/01:00am 13.8 9.0 8.8 72 2.7 NW 24 35 13 19 - - 0.0
02/12:30am 13.8 8.2 8.8 72 2.7 NW 28 43 15 23 - - 0.0
 
Date/Time
EDT
Tmp

°C
App
Tmp
°C
Dew
Point
°C
Rel
Hum
%
Delta-T

°C
Wind Press
QNH
hPa
Press
MSL
hPa
Rain
since
9 am
mm
Dir
 
Spd
km/h
Gust
km/h
Spd
kts
Gust
kts
01/11:30pm 13.6 9.1 8.7 72 2.7 NW 22 32 12 17 - - 0.0
01/11:00pm 14.1 8.9 8.7 70 2.9 NW 26 39 14 21 - - 0.0
01/10:30pm 14.1 9.3 8.7 70 2.9 NW 24 33 13 18 - - 0.0
01/10:00pm 14.1 9.6 8.7 70 2.9 NW 22 30 12 16 - - 0.0
01/09:30pm 13.7 10.3 9.0 73 2.6 NW 17 24 9 13 - - 0.0
01/09:00pm 13.7 9.8 8.7 72 2.7 NNW 19 24 10 13 - - 0.0
01/08:30pm 13.8 9.9 8.8 72 2.7 NNW 19 26 10 14 - - 0.0
01/08:00pm 13.8 10.3 8.8 72 2.7 NNW 17 24 9 13 - - 0.0
01/07:30pm 13.9 10.1 8.9 72 2.7 NW 19 26 10 14 - - 0.0
01/07:00pm 14.0 9.9 8.6 70 2.9 NNW 20 30 11 16 - - 0.0
01/06:30pm 14.6 11.2 9.0 69 3.1 NNW 17 24 9 13 - - 0.0
01/06:00pm 15.0 11.2 9.1 68 3.3 NNW 19 24 10 13 - - 0.0
01/05:30pm 15.2 12.2 9.1 67 3.4 NW 15 24 8 13 - - 0.0
01/05:00pm 15.5 11.7 9.2 66 3.5 NNW 19 24 10 13 - - 0.0
01/04:30pm 15.7 11.9 8.9 64 3.8 NNW 19 32 10 17 - - 0.0
01/04:00pm 15.7 12.7 9.1 65 3.7 NNW 15 28 8 15 - - 0.0
01/03:30pm 16.6 13.2 10.5 67 3.5 NNW 19 26 10 14 - - 0.0
01/03:00pm 15.8 13.2 9.5 66 3.5 NW 13 19 7 10 - - 0.0
01/02:30pm 16.6 13.6 9.3 62 4.1 NW 15 19 8 10 - - 0.0
01/02:00pm 16.2 13.2 9.2 63 3.9 NW 15 20 8 11 - - 0.0
01/01:30pm 16.8 13.7 10.2 65 3.8 NW 17 28 9 15 - - 0.0
01/01:00pm 16.4 12.9 8.9 61 4.2 NW 17 26 9 14 - - 0.0
01/12:30pm 15.9 12.4 8.6 62 4.0 NNW 17 28 9 15 - - 0.0
01/12:00pm 15.5 12.7 8.7 64 3.7 NNW 13 19 7 10 - - 0.0
01/11:30am 14.5 12.0 8.2 66 3.4 NNW 11 17 6 9 - - 0.0
01/11:00am 13.6 10.7 6.7 63 3.6 NNW 11 15 6 8 - - 0.0
01/10:30am 13.7 10.7 7.7 67 3.2 NNW 13 19 7 10 - - 0.0
01/10:00am 13.6 10.4 6.7 63 3.6 N 13 22 7 12 - - 0.0
01/09:30am 12.9 10.6 5.8 62 3.6 NNW 7 15 4 8 - - 0.0
01/09:00am 13.3 11.0 5.9 61 3.8 NNE 7 11 4 6 - - 0.0
01/08:30am 11.9 9.1 5.1 63 3.4 N 9 15 5 8 - - 0.0
01/08:00am 11.1 7.3 5.6 69 2.8 NE 15 19 8 10 - - 0.0
01/07:30am 10.5 6.5 5.1 69 2.7 NE 15 20 8 11 - - 0.0
01/07:00am 10.2 6.7 3.7 64 3.1 NE 11 11 6 6 - - 0.0
01/06:30am 10.8 7.3 1.1 51 4.4 NNE 9 15 5 8 - - 0.0
01/06:00am 10.8 9.0 1.4 52 4.3 CALM 0 0 0 0 - - 0.0
01/05:30am 10.5 8.8 1.6 54 4.1 CALM 0 2 0 1 - - 0.0
01/05:00am 11.2 8.3 1.2 50 4.6 N 6 7 3 4 - - 0.0
01/04:30am 11.3 7.5 1.8 52 4.4 ENE 11 15 6 8 - - 0.0
01/04:00am 11.3 7.3 2.6 55 4.1 NE 13 17 7 9 - - 0.0
01/03:30am 11.8 8.3 3.6 57 4.0 NE 11 15 6 8 - - 0.0
01/03:00am 11.2 8.7 4.9 65 3.1 ENE 7 9 4 5 - - 0.0
01/02:30am 11.4 9.1 5.7 68 2.9 NE 7 9 4 5 - - 0.0
01/02:00am 11.0 8.5 6.4 73 2.4 ENE 9 13 5 7 - - 0.0
01/01:30am 11.0 8.6 6.9 76 2.1 ENE 9 11 5 6 - - 0.0
01/01:00am 11.2 10.5 6.9 75 2.2 CALM 0 0 0 0 - - 0.0
01/12:30am 11.4 8.3 7.3 76 2.1 ENE 13 15 7 8 - - 0.0
01/12:00am 11.6 8.6 7.5 76 2.2 ENE 13 20 7 11 - - 0.0
 
Date/Time
EDT
Tmp

°C
App
Tmp
°C
Dew
Point
°C
Rel
Hum
%
Delta-T

°C
Wind Press
QNH
hPa
Press
MSL
hPa
Rain
since
9 am
mm
Dir
 
Spd
km/h
Gust
km/h
Spd
kts
Gust
kts
31/11:30pm 11.5 8.6 6.4 71 2.6 NE 11 15 6 8 - - 0.0
31/11:00pm 11.7 8.7 5.8 67 3.0 NE 11 15 6 8 - - 0.0
31/10:30pm 12.1 9.3 5.3 63 3.4 NE 9 13 5 7 - - 0.0
31/10:00pm 12.5 8.9 5.2 61 3.7 NE 13 15 7 8 - - 0.0
31/09:30pm 12.6 10.2 5.3 61 3.7 NNE 7 9 4 5 - - 0.0
31/09:00pm 13.3 10.2 5.5 59 4.0 NNE 11 13 6 7 - - 0.0
31/08:30pm 13.7 11.4 5.6 58 4.1 NNE 7 11 4 6 - - 0.0
31/08:00pm 14.3 12.8 4.9 53 4.8 WNW 2 9 1 5 - - 0.0
31/07:30pm 14.4 11.8 4.4 51 5.0 NW 7 11 4 6 - - 0.0
31/07:00pm 15.3 13.0 4.9 50 5.3 NNW 6 9 3 5 - - 0.0
31/06:30pm 17.2 14.5 5.5 46 6.1 WNW 9 11 5 6 - - 0.0
31/06:00pm 17.8 14.4 6.0 46 6.3 W 13 17 7 9 - - 0.0
31/05:30pm 18.0 14.9 5.6 44 6.5 W 11 17 6 9 - - 0.0
31/05:00pm 18.6 15.3 6.4 45 6.5 WNW 13 19 7 10 - - 0.0
31/04:30pm 18.1 14.7 6.0 45 6.4 W 13 20 7 11 - - 0.0
31/04:00pm 18.4 15.1 6.3 45 6.5 WNW 13 20 7 11 - - 0.0
31/03:30pm 17.8 13.9 5.4 44 6.5 NW 15 20 8 11 - - 0.0
31/03:00pm 18.3 15.5 5.2 42 6.9 WNW 9 17 5 9 - - 0.0
31/02:30pm 18.1 14.7 6.0 45 6.4 WNW 13 22 7 12 - - 0.0
31/02:00pm 17.8 14.6 6.7 48 6.0 NW 13 17 7 9 - - 0.0
31/01:30pm 17.2 14.0 5.2 45 6.2 NW 11 20 6 11 - - 0.0
31/01:00pm 16.7 13.4 6.2 50 5.5 NW 13 20 7 11 - - 0.0
31/12:30pm 15.8 11.8 5.1 49 5.5 NW 15 20 8 11 - - 0.0
31/12:00pm 14.8 11.5 4.5 50 5.2 NW 11 17 6 9 - - 0.0
31/11:30am 14.6 11.6 4.3 50 5.2 NW 9 13 5 7 - - 0.0
31/11:00am 13.9 11.4 3.7 50 5.0 WNW 6 9 3 5 - - 0.0
31/10:30am 13.6 10.9 3.7 51 4.9 SW 7 9 4 5 - - 0.0
31/10:00am 12.8 9.9 2.4 49 5.0 S 7 9 4 5 - - 0.0
31/09:30am 13.3 10.1 2.8 49 5.1 ENE 9 11 5 6 - - 0.0
31/09:00am 12.0 8.3 2.5 52 4.5 E 11 15 6 8 - - 0.0
31/08:30am 10.7 6.6 2.0 55 4.0 E 13 17 7 9 - - 0.0
31/08:00am 9.6 5.0 1.3 56 3.8 E 15 17 8 9 - - 0.0
31/07:30am 9.1 4.8 0.8 56 3.7 E 13 15 7 8 - - 0.0
31/07:00am 9.3 5.3 0.5 54 3.9 E 11 13 6 7 - - 0.0
31/06:30am 8.9 4.2 0.6 56 3.7 ENE 15 17 8 9 - - 0.0
31/06:00am 8.6 4.3 1.1 59 3.4 ENE 13 17 7 9 - - 0.0
31/05:30am 9.5 5.8 0.1 52 4.1 E 9 11 5 6 - - 0.0
31/05:00am 10.0 6.4 0.3 51 4.3 E 9 11 5 6 - - 0.0
31/04:30am 9.9 6.3 0.8 53 4.1 E 9 9 5 5 - - 0.0
31/04:00am 8.9 4.7 1.6 60 3.3 ENE 13 15 7 8 - - 0.0
31/03:30am 9.3 4.6 1.0 56 3.7 ENE 15 19 8 10 - - 0.0
31/03:00am 9.9 4.8 1.0 54 4.0 ENE 17 20 9 11 - - 0.0
31/02:30am 9.9 4.4 1.8 57 3.7 ENE 20 26 11 14 - - 0.0
31/02:00am 9.9 4.6 3.2 63 3.2 ENE 20 26 11 14 - - 0.0
31/01:30am 9.7 4.5 3.4 65 3.0 ENE 20 24 11 13 - - 0.0
31/01:00am 9.1 4.0 3.1 66 2.8 ENE 19 20 10 11 - - 0.0
31/12:30am 9.0 4.6 2.8 65 2.9 E 15 19 8 10 - - 0.0
31/12:00am 8.8 4.0 2.6 65 2.9 E 17 20 9 11 - - 0.0
 
Date/Time
EDT
Tmp

°C
App
Tmp
°C
Dew
Point
°C
Rel
Hum
%
Delta-T

°C
Wind Press
QNH
hPa
Press
MSL
hPa
Rain
since
9 am
mm
Dir
 
Spd
km/h
Gust
km/h
Spd
kts
Gust
kts
30/11:30pm 9.1 3.7 2.4 63 3.1 E 20 26 11 14 - - 0.0
30/11:00pm 9.9 3.8 2.5 60 3.5 E 24 30 13 16 - - 0.0
30/10:30pm 10.4 5.7 1.2 53 4.2 E 15 20 8 11 - - 0.0
30/10:00pm 11.4 7.5 1.4 50 4.6 ESE 11 13 6 7 - - 0.0
30/09:30pm 11.5 8.6 1.2 49 4.7 SSE 6 7 3 4 - - 0.0
30/09:00pm 11.6 8.6 1.0 48 4.8 SSE 6 7 3 4 - - 0.0
30/08:30pm 11.5 9.3 0.9 48 4.8 SSE 2 9 1 5 - - 0.0
30/08:00pm 11.4 9.4 -0.1 45 5.1 CALM 0 0 0 0 - - 0.0
30/07:30pm 11.3 8.2 -2.5 38 5.8 NNW 4 6 2 3 - - 0.0
30/07:00pm 12.4 9.0 -0.5 41 5.8 NW 7 9 4 5 - - 0.0

Latest Capital City Observations: Canberra | Sydney | Melbourne | Brisbane | Adelaide | Perth | Hobart | Darwin

Other Formats:

Comma delimited format used in spreadsheet applications
http://www.bom.gov.au/fwo/IDN60903/IDN60903.95916.axf

JavaScript Object Notation format (JSON) in row-major order
http://www.bom.gov.au/fwo/IDN60903/IDN60903.95916.json